createdAt,value
2023-04-13T00:00:12.366Z,2.40
2023-04-13T00:01:12.512Z,2.50
2023-04-13T00:02:12.759Z,2.30
2023-04-13T00:03:13.128Z,2.20
2023-04-13T00:04:13.072Z,2.90
2023-04-13T00:05:13.235Z,2.50
2023-04-13T00:06:13.408Z,2.50
2023-04-13T00:07:13.580Z,2.40
2023-04-13T00:08:13.747Z,2.40
2023-04-13T00:09:13.939Z,2.10
2023-04-13T00:10:14.097Z,2.20
2023-04-13T00:11:14.275Z,2.20
2023-04-13T00:12:14.437Z,2.40
2023-04-13T00:13:14.661Z,2.30
2023-04-13T00:14:14.774Z,2.90
2023-04-13T00:15:14.943Z,2.30
2023-04-13T00:16:15.143Z,2.40
2023-04-13T00:17:15.279Z,2.50
2023-04-13T00:18:15.470Z,2.70
2023-04-13T00:19:15.638Z,2.70
2023-04-13T00:20:15.804Z,2.30
2023-04-13T00:21:15.989Z,2.50
2023-04-13T00:22:16.160Z,2.80
2023-04-13T00:23:16.332Z,2.80
2023-04-13T00:24:16.508Z,2.20
2023-04-13T00:25:16.688Z,2.70
2023-04-13T00:26:16.862Z,3.10
2023-04-13T00:27:17.035Z,3.00
2023-04-13T00:28:17.222Z,2.90
2023-04-13T00:29:17.378Z,2.90
2023-04-13T00:30:17.554Z,2.90
2023-04-13T00:31:17.752Z,2.50
2023-04-13T00:32:17.899Z,3.40
2023-04-13T00:33:18.129Z,3.00
2023-04-13T00:34:18.242Z,3.00
2023-04-13T00:35:18.414Z,3.10
2023-04-13T00:36:18.576Z,2.90
2023-04-13T00:37:18.769Z,2.60
2023-04-13T00:38:18.964Z,2.30
2023-04-13T00:39:19.113Z,2.60
2023-04-13T00:40:19.301Z,2.30
2023-04-13T00:41:19.454Z,2.60
2023-04-13T00:42:19.610Z,2.70
2023-04-13T00:43:19.791Z,3.00
2023-04-13T00:44:19.969Z,2.70
2023-04-13T00:45:20.122Z,2.30
2023-04-13T00:46:20.340Z,2.60
2023-04-13T00:47:20.499Z,2.10
2023-04-13T00:48:20.646Z,3.00
2023-04-13T00:49:20.822Z,2.40
2023-04-13T00:50:21.254Z,2.60
2023-04-13T00:51:21.149Z,2.60
2023-04-13T00:52:21.342Z,2.10
2023-04-13T00:53:21.520Z,2.30
2023-04-13T00:54:21.665Z,2.40
2023-04-13T00:55:22.067Z,3.00
2023-04-13T00:56:21.995Z,2.30
2023-04-13T00:57:22.163Z,2.30
2023-04-13T00:58:22.380Z,2.40
2023-04-13T00:59:22.545Z,3.00
2023-04-13T01:00:22.713Z,2.70
2023-04-13T01:01:22.939Z,2.60
2023-04-13T01:02:23.165Z,3.30
2023-04-13T01:03:23.269Z,2.40
2023-04-13T01:04:23.483Z,2.60
2023-04-13T01:05:23.579Z,3.00
2023-04-13T01:06:23.742Z,3.40
2023-04-13T01:07:23.903Z,3.30
2023-04-13T01:08:24.083Z,3.20
2023-04-13T01:09:24.231Z,3.30
2023-04-13T01:10:24.411Z,3.70
2023-04-13T01:11:24.604Z,3.20
2023-04-13T01:12:24.771Z,3.30
2023-04-13T01:13:24.932Z,2.60
2023-04-13T01:14:25.098Z,2.70
2023-04-13T01:15:25.260Z,3.10
2023-04-13T01:16:25.529Z,3.40
2023-04-13T01:17:25.598Z,2.80
2023-04-13T01:18:25.787Z,3.10
2023-04-13T01:19:25.968Z,2.60
2023-04-13T01:20:26.161Z,2.70
2023-04-13T01:21:26.427Z,2.30
2023-04-13T01:22:26.514Z,2.70
2023-04-13T01:23:26.684Z,2.30
2023-04-13T01:24:26.864Z,2.20
2023-04-13T01:25:27.032Z,2.70
2023-04-13T01:26:27.206Z,2.50
2023-04-13T01:27:27.400Z,2.40
2023-04-13T01:28:27.570Z,3.00
2023-04-13T01:29:27.755Z,3.10
2023-04-13T01:30:27.919Z,3.20
2023-04-13T01:31:28.133Z,3.30
2023-04-13T01:32:28.308Z,2.80
2023-04-13T01:33:28.436Z,3.10
2023-04-13T01:34:28.604Z,2.80
2023-04-13T01:35:28.771Z,3.30
2023-04-13T01:36:28.948Z,3.70
2023-04-13T01:37:29.125Z,2.90
2023-04-13T01:38:29.305Z,3.30
2023-04-13T01:39:29.466Z,4.10
2023-04-13T01:40:29.664Z,3.60
2023-04-13T01:41:29.832Z,3.50
2023-04-13T01:42:30.017Z,3.50
2023-04-13T01:43:30.208Z,4.00
2023-04-13T01:44:30.338Z,3.40
2023-04-13T01:45:30.499Z,4.00
2023-04-13T01:46:30.717Z,3.90
2023-04-13T01:47:30.989Z,3.80
2023-04-13T01:48:31.014Z,3.60
2023-04-13T01:49:31.192Z,3.40
2023-04-13T01:50:31.410Z,3.70
2023-04-13T01:51:31.524Z,3.70
2023-04-13T01:52:31.697Z,3.60
2023-04-13T01:53:31.873Z,3.70
2023-04-13T01:54:32.046Z,3.90
2023-04-13T01:55:32.206Z,3.90
2023-04-13T01:56:32.394Z,4.10
2023-04-13T01:57:32.570Z,3.70
2023-04-13T01:58:32.768Z,3.60
2023-04-13T01:59:32.931Z,3.40
2023-04-13T02:00:33.207Z,3.60
2023-04-13T02:01:33.270Z,4.10
2023-04-13T02:02:33.561Z,4.00
2023-04-13T02:03:33.647Z,3.90
2023-04-13T02:04:33.777Z,4.30
2023-04-13T02:05:33.932Z,3.20
2023-04-13T02:06:34.144Z,3.90
2023-04-13T02:07:34.286Z,3.30
2023-04-13T02:08:34.463Z,3.80
2023-04-13T02:09:34.622Z,3.60
2023-04-13T02:10:34.828Z,3.10
2023-04-13T02:11:35.053Z,3.30
2023-04-13T02:12:35.152Z,3.40
2023-04-13T02:13:35.321Z,3.70
2023-04-13T02:14:35.489Z,2.90
2023-04-13T02:15:35.677Z,3.00
2023-04-13T02:16:35.871Z,2.90
2023-04-13T02:17:36.044Z,2.10
2023-04-13T02:18:36.189Z,2.60
2023-04-13T02:19:36.339Z,2.50
2023-04-13T02:20:36.508Z,2.30
2023-04-13T02:21:36.695Z,2.30
2023-04-13T02:22:36.873Z,2.70
2023-04-13T02:23:37.031Z,3.30
2023-04-13T02:24:37.199Z,3.50
2023-04-13T02:25:37.357Z,2.30
2023-04-13T02:26:37.549Z,2.90
2023-04-13T02:27:37.701Z,2.30
2023-04-13T02:28:37.859Z,2.50
2023-04-13T02:29:38.048Z,2.40
2023-04-13T02:30:38.204Z,1.80
2023-04-13T02:31:38.408Z,2.90
2023-04-13T02:32:38.555Z,2.70
2023-04-13T02:33:38.716Z,2.60
2023-04-13T02:34:38.882Z,2.10
2023-04-13T02:35:39.109Z,2.10
2023-04-13T02:36:39.263Z,1.90
2023-04-13T02:37:39.420Z,1.90
2023-04-13T02:38:39.593Z,2.20
2023-04-13T02:39:39.754Z,2.60
2023-04-13T02:40:39.915Z,1.90
2023-04-13T02:41:40.104Z,2.20
2023-04-13T02:42:40.273Z,2.30
2023-04-13T02:43:40.432Z,2.30
2023-04-13T02:44:40.609Z,2.10
2023-04-13T02:45:40.833Z,2.00
2023-04-13T02:46:40.980Z,2.10
2023-04-13T02:47:41.153Z,2.20
2023-04-13T02:48:41.290Z,2.00
2023-04-13T02:49:41.458Z,1.90
2023-04-13T02:50:41.618Z,2.20
2023-04-13T02:51:41.792Z,1.90
2023-04-13T02:52:41.989Z,2.30
2023-04-13T02:53:42.159Z,1.60
2023-04-13T02:54:42.313Z,1.60
2023-04-13T02:55:42.480Z,1.40
2023-04-13T02:56:42.644Z,2.30
2023-04-13T02:57:42.840Z,1.60
2023-04-13T02:58:43.000Z,1.50
2023-04-13T02:59:43.183Z,2.00
2023-04-13T03:00:43.336Z,1.50
2023-04-13T03:01:43.562Z,1.60
2023-04-13T03:02:43.802Z,2.00
2023-04-13T03:03:43.861Z,2.20
2023-04-13T03:04:44.056Z,1.80
2023-04-13T03:05:44.215Z,1.40
2023-04-13T03:06:44.407Z,1.90
2023-04-13T03:07:44.578Z,1.50
2023-04-13T03:08:44.741Z,1.90
2023-04-13T03:09:44.906Z,1.40
2023-04-13T03:10:45.063Z,2.00
2023-04-13T03:11:45.253Z,1.40
2023-04-13T03:12:45.416Z,1.90
2023-04-13T03:13:45.580Z,1.90
2023-04-13T03:14:45.744Z,1.50
2023-04-13T03:15:45.906Z,2.00
2023-04-13T03:16:46.106Z,1.50
2023-04-13T03:17:46.302Z,1.80
2023-04-13T03:18:46.437Z,1.40
2023-04-13T03:19:46.603Z,1.50
2023-04-13T03:20:46.761Z,1.50
2023-04-13T03:21:46.930Z,1.60
2023-04-13T03:22:47.090Z,1.30
2023-04-13T03:23:47.254Z,1.50
2023-04-13T03:24:47.426Z,1.60
2023-04-13T03:25:47.585Z,1.90
2023-04-13T03:26:47.774Z,1.40
2023-04-13T03:27:47.936Z,1.50
2023-04-13T03:28:48.103Z,1.50
2023-04-13T03:29:48.260Z,1.30
2023-04-13T03:30:48.478Z,1.30
2023-04-13T03:31:48.644Z,1.60
2023-04-13T03:32:48.874Z,1.40
2023-04-13T03:33:48.960Z,1.80
2023-04-13T03:34:49.161Z,1.50
2023-04-13T03:35:49.341Z,1.40
2023-04-13T03:36:49.499Z,1.10
2023-04-13T03:37:49.700Z,1.60
2023-04-13T03:38:49.823Z,2.10
2023-04-13T03:39:50.019Z,1.40
2023-04-13T03:40:50.179Z,1.30
2023-04-13T03:41:50.347Z,1.20
2023-04-13T03:42:50.509Z,1.60
2023-04-13T03:43:50.669Z,1.20
2023-04-13T03:44:50.839Z,1.10
2023-04-13T03:45:51.020Z,1.50
2023-04-13T03:46:51.195Z,1.50
2023-04-13T03:47:51.381Z,1.70
2023-04-13T03:48:51.522Z,1.40
2023-04-13T03:49:51.668Z,1.80
2023-04-13T03:50:51.850Z,1.50
2023-04-13T03:51:52.020Z,1.90
2023-04-13T03:52:52.186Z,1.60
2023-04-13T03:53:52.354Z,1.50
2023-04-13T03:54:52.573Z,1.80
2023-04-13T03:55:52.716Z,1.60
2023-04-13T03:56:52.875Z,2.00
2023-04-13T03:57:53.081Z,1.60
2023-04-13T03:58:53.270Z,1.70
2023-04-13T03:59:53.360Z,1.60
2023-04-13T04:00:53.557Z,1.60
2023-04-13T04:01:53.748Z,1.30
2023-04-13T04:02:53.967Z,1.40
2023-04-13T04:03:54.121Z,1.50
2023-04-13T04:04:54.263Z,1.60
2023-04-13T04:05:54.373Z,1.40
2023-04-13T04:06:54.538Z,2.00
2023-04-13T04:07:54.697Z,2.40
2023-04-13T04:08:54.878Z,2.00
2023-04-13T04:09:55.095Z,1.60
2023-04-13T04:10:55.250Z,1.70
2023-04-13T04:11:55.397Z,2.30
2023-04-13T04:12:55.588Z,1.60
2023-04-13T04:13:55.783Z,2.20
2023-04-13T04:14:55.963Z,2.10
2023-04-13T04:15:56.153Z,1.70
2023-04-13T04:16:56.292Z,2.00
2023-04-13T04:17:56.513Z,2.10
2023-04-13T04:18:56.645Z,1.90
2023-04-13T04:19:56.802Z,1.50
2023-04-13T04:20:56.977Z,2.10
2023-04-13T04:21:57.124Z,2.10
2023-04-13T04:22:57.293Z,2.20
2023-04-13T04:23:57.671Z,2.50
2023-04-13T04:24:57.670Z,3.00
2023-04-13T04:25:57.823Z,2.30
2023-04-13T04:26:57.996Z,2.80
2023-04-13T04:27:58.161Z,2.00
2023-04-13T04:28:58.322Z,2.40
2023-04-13T04:29:58.511Z,2.00
2023-04-13T04:30:58.670Z,2.30
2023-04-13T04:31:58.862Z,2.90
2023-04-13T04:32:59.060Z,2.40
2023-04-13T04:33:59.297Z,2.40
2023-04-13T04:34:59.356Z,2.30
2023-04-13T04:35:59.501Z,3.70
2023-04-13T04:37:03.280Z,2.30
2023-04-13T04:37:59.822Z,2.90
2023-04-13T04:39:00.004Z,3.20
2023-04-13T04:40:00.366Z,2.40
2023-04-13T04:41:00.369Z,3.20
2023-04-13T04:42:00.521Z,2.30
2023-04-13T04:43:00.715Z,2.80
2023-04-13T04:44:01.015Z,3.80
2023-04-13T04:45:01.078Z,3.20
2023-04-13T04:46:01.286Z,2.80
2023-04-13T04:47:01.423Z,3.20
2023-04-13T04:48:01.653Z,3.40
2023-04-13T04:49:01.801Z,3.30
2023-04-13T04:50:02.006Z,3.40
2023-04-13T04:51:02.149Z,3.20
2023-04-13T04:52:02.333Z,3.10
2023-04-13T04:53:02.529Z,2.80
2023-04-13T04:54:02.673Z,3.30
2023-04-13T04:55:02.860Z,3.50
2023-04-13T04:56:03.001Z,3.10
2023-04-13T04:57:03.177Z,3.20
2023-04-13T04:58:03.416Z,3.10
2023-04-13T04:59:03.553Z,2.80
2023-04-13T05:00:03.765Z,3.40
2023-04-13T05:01:03.982Z,3.90
2023-04-13T05:02:04.111Z,2.80
2023-04-13T05:03:04.322Z,3.20
2023-04-13T05:04:04.465Z,3.20
2023-04-13T05:05:04.675Z,2.80
2023-04-13T05:06:04.793Z,3.50
2023-04-13T05:07:04.980Z,2.80
2023-04-13T05:08:05.156Z,2.80
2023-04-13T05:09:05.335Z,2.80
2023-04-13T05:10:05.542Z,3.60
2023-04-13T05:11:05.684Z,2.70
2023-04-13T05:12:05.862Z,3.00
2023-04-13T05:13:06.050Z,3.40
2023-04-13T05:14:06.255Z,3.70
2023-04-13T05:15:06.422Z,3.50
2023-04-13T05:16:06.638Z,3.40
2023-04-13T05:17:06.777Z,3.10
2023-04-13T05:18:06.979Z,2.90
2023-04-13T05:19:07.113Z,3.50
2023-04-13T05:20:07.345Z,4.00
2023-04-13T05:21:07.485Z,3.90
2023-04-13T05:22:07.631Z,3.70
2023-04-13T05:23:07.820Z,4.10
2023-04-13T05:24:08.004Z,3.80
2023-04-13T05:25:08.183Z,4.40
2023-04-13T05:26:08.342Z,3.30
2023-04-13T05:27:08.510Z,3.70
2023-04-13T05:28:08.689Z,2.90
2023-04-13T05:29:08.862Z,3.40
2023-04-13T05:30:09.067Z,3.20
2023-04-13T05:31:09.289Z,4.30
2023-04-13T05:32:09.375Z,3.70
2023-04-13T05:33:09.551Z,3.50
2023-04-13T05:34:09.740Z,3.70
2023-04-13T05:35:09.937Z,3.30
2023-04-13T05:36:10.079Z,3.70
2023-04-13T05:37:10.217Z,3.20
2023-04-13T05:38:10.411Z,3.30
2023-04-13T05:39:10.563Z,3.30
2023-04-13T05:40:10.765Z,3.70
2023-04-13T05:41:10.917Z,3.30
2023-04-13T05:42:11.095Z,4.00
2023-04-13T05:43:11.271Z,2.90
2023-04-13T05:44:11.450Z,3.60
2023-04-13T05:45:11.653Z,3.90
2023-04-13T05:46:11.876Z,3.20
2023-04-13T05:47:12.006Z,3.40
2023-04-13T05:48:12.179Z,3.90
2023-04-13T05:49:12.369Z,3.10
2023-04-13T05:50:12.578Z,3.50
2023-04-13T05:51:12.714Z,3.60
2023-04-13T05:52:12.912Z,2.80
2023-04-13T05:53:13.072Z,3.50
2023-04-13T05:54:13.232Z,2.80
2023-04-13T05:55:13.407Z,3.00
2023-04-13T05:56:13.578Z,2.90
2023-04-13T05:57:13.760Z,3.10
2023-04-13T05:58:13.930Z,3.20
2023-04-13T05:59:14.109Z,5.90
2023-04-13T06:00:14.316Z,3.80
2023-04-13T06:01:14.473Z,2.60
2023-04-13T06:02:14.734Z,3.70
2023-04-13T06:03:14.957Z,2.50
2023-04-13T06:04:15.102Z,2.80
2023-04-13T06:05:15.212Z,3.00
2023-04-13T06:06:15.345Z,2.60
2023-04-13T06:07:15.495Z,3.00
2023-04-13T06:08:15.676Z,2.00
2023-04-13T06:09:15.842Z,2.00
2023-04-13T06:10:16.019Z,2.20
2023-04-13T06:11:16.165Z,2.10
2023-04-13T06:12:16.342Z,2.50
2023-04-13T06:13:16.521Z,2.00
2023-04-13T06:14:16.697Z,1.70
2023-04-13T06:15:16.924Z,2.60
2023-04-13T06:16:17.099Z,1.80
2023-04-13T06:17:17.244Z,2.00
2023-04-13T06:18:17.414Z,2.80
2023-04-13T06:19:17.571Z,1.40
2023-04-13T06:20:17.758Z,1.60
2023-04-13T06:21:17.902Z,1.30
2023-04-13T06:22:18.097Z,1.70
2023-04-13T06:23:18.234Z,0.80
2023-04-13T06:24:18.415Z,0.70
2023-04-13T06:25:18.629Z,1.30
2023-04-13T06:26:18.764Z,0.80
2023-04-13T06:27:18.908Z,0.70
2023-04-13T06:28:19.093Z,1.10
2023-04-13T06:29:19.304Z,0.80
2023-04-13T06:30:19.507Z,0.70
2023-04-13T06:31:19.664Z,0.70
2023-04-13T06:32:19.833Z,0.70
2023-04-13T06:33:19.985Z,0.70
2023-04-13T06:34:20.200Z,1.00
2023-04-13T06:35:20.376Z,0.80
2023-04-13T06:36:20.564Z,0.60
2023-04-13T06:37:20.709Z,0.80
2023-04-13T06:38:20.891Z,0.60
2023-04-13T06:39:21.070Z,0.80
2023-04-13T06:40:21.269Z,0.50
2023-04-13T06:41:21.412Z,0.40
2023-04-13T06:42:21.590Z,0.60
2023-04-13T06:43:29.196Z,0.60
2023-04-13T06:44:22.977Z,0.30
2023-04-13T06:45:22.117Z,0.40
2023-04-13T06:46:22.312Z,0.90
2023-04-13T06:47:22.500Z,0.70
2023-04-13T06:48:22.663Z,0.80
2023-04-13T06:49:22.849Z,0.60
2023-04-13T06:50:22.997Z,0.60
2023-04-13T06:51:23.191Z,0.50
2023-04-13T06:52:23.358Z,0.50
2023-04-13T06:53:23.537Z,0.40
2023-04-13T06:54:23.707Z,0.40
2023-04-13T06:55:23.926Z,0.30
2023-04-13T06:56:24.096Z,0.30
2023-04-13T06:57:24.238Z,0.20
2023-04-13T06:58:24.487Z,0.50
2023-04-13T06:59:24.613Z,0.30
2023-04-13T07:00:30.233Z,0.20
2023-04-13T07:01:26.053Z,0.30
2023-04-13T07:02:25.212Z,0.20
2023-04-13T07:03:25.538Z,0.40
2023-04-13T07:04:28.069Z,0.20
2023-04-13T07:05:25.681Z,0.20
2023-04-13T07:06:25.854Z,0.20
2023-04-13T07:07:26.044Z,0.50
2023-04-13T07:08:26.251Z,0.20
2023-04-13T07:09:26.410Z,0.40
2023-04-13T07:10:26.634Z,0.30
2023-04-13T07:11:26.757Z,0.40
2023-04-13T07:12:27.046Z,0.20
2023-04-13T07:13:27.115Z,0.20
2023-04-13T07:14:27.295Z,0.30
2023-04-13T07:15:27.445Z,0.40
2023-04-13T07:16:27.781Z,0.30
2023-04-13T07:17:27.904Z,0.20
2023-04-13T07:18:28.005Z,0.20
2023-04-13T07:19:28.157Z,0.40
2023-04-13T07:20:28.312Z,0.40
2023-04-13T07:21:28.483Z,0.30
2023-04-13T07:22:28.641Z,0.10
2023-04-13T07:23:28.814Z,0.30
2023-04-13T07:24:30.149Z,0.50
2023-04-13T07:25:29.165Z,0.30
2023-04-13T07:26:29.361Z,0.50
2023-04-13T07:27:29.536Z,0.20
2023-04-13T07:28:29.691Z,0.30
2023-04-13T07:29:30.057Z,0.50
2023-04-13T07:30:30.045Z,0.50
2023-04-13T07:31:30.246Z,0.60
2023-04-13T07:32:31.493Z,0.40
2023-04-13T07:33:30.546Z,0.40
2023-04-13T07:34:30.748Z,0.50
2023-04-13T07:35:30.954Z,0.30
2023-04-13T07:36:31.123Z,0.80
2023-04-13T07:37:31.235Z,0.90
2023-04-13T07:38:31.417Z,0.40
2023-04-13T07:39:31.567Z,0.40
2023-04-13T07:40:31.740Z,0.70
2023-04-13T07:41:32.025Z,0.50
2023-04-13T07:42:32.106Z,0.90
2023-04-13T07:43:32.276Z,0.90
2023-04-13T07:44:32.457Z,0.30
2023-04-13T07:45:32.594Z,0.70
2023-04-13T07:46:32.803Z,0.30
2023-04-13T07:47:32.940Z,0.20
2023-04-13T07:48:33.098Z,0.60
2023-04-13T07:49:33.275Z,0.20
2023-04-13T07:50:33.439Z,0.40
2023-04-13T07:51:33.611Z,0.50
2023-04-13T07:52:33.797Z,0.30
2023-04-13T07:53:33.982Z,0.20
2023-04-13T07:54:34.130Z,0.10
2023-04-13T07:55:35.120Z,0.20
2023-04-13T07:56:34.463Z,0.50
2023-04-13T07:57:34.668Z,0.30
2023-04-13T07:58:34.822Z,0.20
2023-04-13T07:59:34.988Z,0.20
2023-04-13T08:00:35.140Z,0.20
2023-04-13T08:01:35.308Z,0.20
2023-04-13T08:02:35.731Z,0.40
2023-04-13T08:03:35.721Z,0.70
2023-04-13T08:04:36.130Z,0.20
2023-04-13T08:05:36.099Z,0.50
2023-04-13T08:06:36.192Z,0.40
2023-04-13T08:07:36.393Z,0.40
2023-04-13T08:08:36.786Z,0.30
2023-04-13T08:09:36.723Z,0.40
2023-04-13T08:10:36.896Z,0.40
2023-04-13T08:11:37.138Z,0.20
2023-04-13T08:12:37.268Z,0.50
2023-04-13T08:13:37.492Z,0.20
2023-04-13T08:14:37.654Z,0.20
2023-04-13T08:15:37.817Z,0.10
2023-04-13T08:16:38.034Z,0.20
2023-04-13T08:17:38.226Z,0.20
2023-04-13T08:18:38.388Z,0.30
2023-04-13T08:19:38.548Z,0.40
2023-04-13T08:20:38.678Z,0.20
2023-04-13T08:21:38.838Z,0.30
2023-04-13T08:22:39.011Z,0.20
2023-04-13T08:23:39.196Z,0.10
2023-04-13T08:24:39.361Z,0.20
2023-04-13T08:25:39.549Z,0.40
2023-04-13T08:26:39.713Z,0.10
2023-04-13T08:27:39.884Z,0.10
2023-04-13T08:28:40.061Z,0.10
2023-04-13T08:29:40.224Z,0.30
2023-04-13T08:30:40.389Z,0.10
2023-04-13T08:31:40.797Z,0.30
2023-04-13T08:32:40.880Z,0.30
2023-04-13T08:33:40.919Z,0.30
2023-04-13T08:34:41.077Z,0.30
2023-04-13T08:35:41.242Z,0.20
2023-04-13T08:36:41.416Z,0.30
2023-04-13T08:37:41.580Z,0.20
2023-04-13T08:38:41.797Z,0.90
2023-04-13T08:39:41.924Z,3.70
2023-04-13T08:40:42.103Z,0.90
2023-04-13T08:41:42.297Z,0.30
2023-04-13T08:42:42.427Z,0.30
2023-04-13T08:43:42.627Z,0.30
2023-04-13T08:44:42.821Z,0.10
2023-04-13T08:45:42.986Z,0.20
2023-04-13T08:46:43.143Z,0.20
2023-04-13T08:47:43.322Z,0.10
2023-04-13T08:48:53.666Z,0.10
2023-04-13T08:49:44.654Z,0.10
2023-04-13T08:50:43.822Z,0.20
2023-04-13T08:51:44.013Z,0.20
2023-04-13T08:52:44.189Z,0.30
2023-04-13T08:53:44.376Z,0.10
2023-04-13T08:54:44.536Z,0.10
2023-04-13T08:55:44.704Z,0.20
2023-04-13T08:56:46.996Z,0.10
2023-04-13T08:57:45.020Z,0.20
2023-04-13T08:58:45.188Z,0.10
2023-04-13T08:59:45.353Z,0.10
2023-04-13T09:00:45.519Z,0.20
2023-04-13T09:01:45.808Z,0.20
2023-04-13T09:03:46.192Z,0.20
2023-04-13T09:04:46.351Z,0.20
2023-04-13T09:05:46.448Z,0.10
2023-04-13T09:06:46.597Z,0.20
2023-04-13T09:07:46.778Z,0.10
2023-04-13T09:08:46.984Z,0.00
2023-04-13T09:09:47.148Z,0.20
2023-04-13T09:10:47.312Z,0.20
2023-04-13T09:11:49.928Z,0.10
2023-04-13T09:12:47.650Z,0.20
2023-04-13T09:13:47.867Z,0.20
2023-04-13T09:14:48.024Z,0.10
2023-04-13T09:15:48.192Z,0.40
2023-04-13T09:16:48.409Z,0.30
2023-04-13T09:17:48.552Z,0.10
2023-04-13T09:18:48.707Z,0.20
2023-04-13T09:19:49.048Z,0.10
2023-04-13T09:20:49.055Z,0.20
2023-04-13T09:21:49.196Z,0.30
2023-04-13T09:22:49.394Z,0.20
2023-04-13T09:23:49.548Z,0.20
2023-04-13T09:24:49.777Z,0.30
2023-04-13T09:25:49.916Z,0.10
2023-04-13T09:26:50.117Z,0.10
2023-04-13T09:27:50.327Z,0.30
2023-04-13T09:28:50.423Z,0.10
2023-04-13T09:29:50.626Z,0.10
2023-04-13T09:30:50.788Z,0.20
2023-04-13T09:31:50.966Z,0.50
2023-04-13T09:32:51.156Z,0.20
2023-04-13T09:33:51.369Z,0.20
2023-04-13T09:34:51.470Z,0.10
2023-04-13T09:35:51.653Z,0.10
2023-04-13T09:36:54.523Z,0.10
2023-04-13T09:37:52.025Z,0.10
2023-04-13T09:38:52.197Z,0.20
2023-04-13T09:39:52.358Z,0.30
2023-04-13T09:40:52.519Z,0.10
2023-04-13T09:41:52.685Z,1.50
2023-04-13T09:42:52.876Z,1.90
2023-04-13T09:43:53.065Z,1.10
2023-04-13T09:44:53.230Z,0.50
2023-04-13T09:45:53.467Z,0.20
2023-04-13T09:46:53.629Z,0.40
2023-04-13T09:47:53.806Z,0.10
2023-04-13T09:48:53.949Z,0.20
2023-04-13T09:49:54.133Z,0.20
2023-04-13T09:50:54.280Z,0.20
2023-04-13T09:51:54.471Z,0.10
2023-04-13T09:52:54.640Z,0.20
2023-04-13T09:53:54.824Z,0.60
2023-04-13T09:54:55.004Z,0.30
2023-04-13T09:55:55.184Z,0.10
2023-04-13T09:56:55.372Z,0.30
2023-04-13T09:57:55.573Z,0.00
2023-04-13T09:58:55.753Z,0.10
2023-04-13T09:59:55.902Z,0.20
2023-04-13T10:00:56.054Z,0.40
2023-04-13T10:01:56.325Z,0.10
2023-04-13T10:02:56.557Z,0.20
2023-04-13T10:03:56.673Z,0.20
2023-04-13T10:04:56.859Z,0.20
2023-04-13T10:06:00.005Z,0.20
2023-04-13T10:06:57.178Z,0.00
2023-04-13T10:07:57.317Z,0.10
2023-04-13T10:08:57.444Z,0.10
2023-04-13T10:09:57.704Z,0.00
2023-04-13T10:10:57.807Z,0.20
2023-04-13T10:11:57.994Z,0.10
2023-04-13T10:12:58.160Z,0.20
2023-04-13T10:13:58.614Z,0.20
2023-04-13T10:14:58.517Z,0.10
2023-04-13T10:16:00.101Z,0.10
2023-04-13T10:16:58.850Z,0.20
2023-04-13T10:17:59.075Z,0.00
2023-04-13T10:18:59.328Z,0.40
2023-04-13T10:19:59.352Z,0.20
2023-04-13T10:20:59.535Z,0.30
2023-04-13T10:21:59.745Z,0.30
2023-04-13T10:22:59.901Z,0.40
2023-04-13T10:24:00.394Z,0.10
2023-04-13T10:25:00.292Z,0.10
2023-04-13T10:26:00.494Z,0.10
2023-04-13T10:27:00.677Z,0.20
2023-04-13T10:28:00.821Z,0.30
2023-04-13T10:29:01.041Z,0.20
2023-04-13T10:30:01.113Z,0.20
2023-04-13T10:31:01.246Z,0.30
2023-04-13T10:32:01.513Z,0.20
2023-04-13T10:33:01.599Z,0.10
2023-04-13T10:34:01.951Z,0.30
2023-04-13T10:35:02.003Z,0.20
2023-04-13T10:36:02.132Z,0.00
2023-04-13T10:37:02.283Z,0.10
2023-04-13T10:38:02.458Z,0.20
2023-04-13T10:39:02.619Z,0.00
2023-04-13T10:40:02.831Z,0.10
2023-04-13T10:41:02.964Z,0.40
2023-04-13T10:42:03.192Z,0.10
2023-04-13T10:43:03.304Z,0.10
2023-04-13T10:44:03.461Z,0.00
2023-04-13T10:45:03.626Z,0.30
2023-04-13T10:46:03.793Z,0.20
2023-04-13T10:47:04.079Z,0.20
2023-04-13T10:48:04.225Z,0.30
2023-04-13T10:49:04.337Z,0.10
2023-04-13T10:50:04.482Z,0.00
2023-04-13T10:51:04.657Z,0.20
2023-04-13T10:52:04.815Z,0.20
2023-04-13T10:53:05.206Z,0.20
2023-04-13T10:54:05.165Z,0.10
2023-04-13T10:55:05.326Z,0.70
2023-04-13T10:56:05.505Z,0.10
2023-04-13T10:57:05.694Z,0.20
2023-04-13T10:58:05.872Z,0.10
2023-04-13T10:59:06.024Z,0.10
2023-04-13T11:00:06.211Z,0.30
2023-04-13T11:01:06.380Z,0.10
2023-04-13T11:02:06.682Z,0.20
2023-04-13T11:03:06.958Z,0.40
2023-04-13T11:04:09.893Z,0.20
2023-04-13T11:05:08.070Z,0.10
2023-04-13T11:06:07.248Z,0.10
2023-04-13T11:07:07.413Z,0.00
2023-04-13T11:08:07.609Z,0.00
2023-04-13T11:09:08.490Z,0.10
2023-04-13T11:10:07.983Z,0.20
2023-04-13T11:11:08.176Z,0.20
2023-04-13T11:12:08.351Z,0.30
2023-04-13T11:13:08.502Z,0.10
2023-04-13T11:14:08.672Z,0.10
2023-04-13T11:15:08.879Z,0.10
2023-04-13T11:16:09.028Z,0.10
2023-04-13T11:17:09.251Z,0.10
2023-04-13T11:18:09.370Z,0.20
2023-04-13T11:19:09.560Z,0.40
2023-04-13T11:20:09.721Z,0.10
2023-04-13T11:21:09.886Z,0.10
2023-04-13T11:22:13.066Z,0.30
2023-04-13T11:23:10.228Z,0.00
2023-04-13T11:24:10.413Z,0.30
2023-04-13T11:25:10.596Z,0.00
2023-04-13T11:26:10.775Z,0.20
2023-04-13T11:27:10.937Z,0.20
2023-04-13T11:28:11.118Z,0.10
2023-04-13T11:29:11.272Z,0.10
2023-04-13T11:30:11.449Z,0.20
2023-04-13T11:31:11.925Z,0.50
2023-04-13T11:32:11.838Z,0.10
2023-04-13T11:33:12.052Z,0.00
2023-04-13T11:34:12.147Z,0.30
2023-04-13T11:35:12.324Z,0.50
2023-04-13T11:36:12.508Z,0.10
2023-04-13T11:37:12.656Z,0.20
2023-04-13T11:38:12.853Z,0.20
2023-04-13T11:39:13.031Z,0.20
2023-04-13T11:40:13.224Z,0.70
2023-04-13T11:41:16.783Z,0.30
2023-04-13T11:42:13.591Z,0.40
2023-04-13T11:43:13.703Z,0.10
2023-04-13T11:44:13.910Z,0.10
2023-04-13T11:45:14.067Z,0.00
2023-04-13T11:46:14.347Z,0.20
2023-04-13T11:47:14.428Z,0.10
2023-04-13T11:48:14.628Z,0.10
2023-04-13T11:49:14.784Z,0.10
2023-04-13T11:50:15.807Z,0.10
2023-04-13T11:51:15.129Z,0.00
2023-04-13T11:52:15.304Z,0.20
2023-04-13T11:53:15.440Z,0.00
2023-04-13T11:54:15.618Z,0.20
2023-04-13T11:55:23.464Z,0.10
2023-04-13T11:56:17.009Z,0.10
2023-04-13T11:57:16.174Z,0.20
2023-04-13T11:58:16.356Z,0.20
2023-04-13T11:59:16.555Z,0.10
2023-04-13T12:00:16.707Z,0.10
2023-04-13T12:01:25.163Z,0.10
2023-04-13T12:02:22.963Z,0.10
2023-04-13T12:04:17.625Z,0.40
2023-04-13T12:05:17.932Z,0.90
2023-04-13T12:06:17.980Z,0.10
2023-04-13T12:07:18.183Z,0.20
2023-04-13T12:08:18.636Z,1.10
2023-04-13T12:09:20.996Z,0.60
2023-04-13T12:10:23.140Z,0.30
2023-04-13T12:13:28.596Z,0.20
2023-04-13T12:14:45.988Z,0.10
2023-04-13T12:15:36.625Z,0.10
2023-04-13T12:16:23.220Z,0.10
2023-04-13T12:18:23.613Z,0.10
2023-04-13T12:19:23.067Z,0.10
2023-04-13T12:20:20.791Z,0.10
2023-04-13T12:21:20.861Z,0.30
2023-04-13T12:22:20.641Z,0.40
2023-04-13T12:23:23.444Z,0.30
2023-04-13T12:24:20.916Z,0.20
2023-04-13T12:25:21.130Z,0.10
2023-04-13T12:26:59.284Z,0.10
2023-04-13T12:27:22.370Z,0.30
2023-04-13T12:28:21.564Z,0.20
2023-04-13T12:29:21.700Z,0.20
2023-04-13T12:30:21.916Z,0.20
2023-04-13T12:31:22.110Z,0.20
2023-04-13T12:32:22.263Z,0.30
2023-04-13T12:33:22.424Z,0.20
2023-04-13T12:34:22.591Z,0.70
2023-04-13T12:35:22.823Z,0.10
2023-04-13T12:36:22.964Z,0.10
2023-04-13T12:37:23.140Z,0.10
2023-04-13T12:38:23.284Z,0.10
2023-04-13T12:39:23.454Z,0.10
2023-04-13T12:40:23.659Z,0.30
2023-04-13T12:41:23.811Z,0.10
2023-04-13T12:42:23.969Z,0.10
2023-04-13T12:43:24.132Z,0.40
2023-04-13T12:44:24.296Z,0.20
2023-04-13T12:45:24.494Z,0.10
2023-04-13T12:46:24.683Z,0.40
2023-04-13T12:47:24.927Z,0.40
2023-04-13T12:48:24.990Z,0.10
2023-04-13T12:49:25.168Z,0.10
2023-04-13T12:50:25.348Z,0.10
2023-04-13T12:51:25.488Z,0.30
2023-04-13T12:52:25.665Z,0.70
2023-04-13T12:53:25.865Z,0.20
2023-04-13T12:54:26.038Z,0.30
2023-04-13T12:55:26.213Z,0.10
2023-04-13T12:56:26.382Z,0.10
2023-04-13T12:57:26.553Z,0.10
2023-04-13T12:58:26.740Z,0.10
2023-04-13T12:59:26.944Z,0.30
2023-04-13T13:00:27.100Z,0.10
2023-04-13T13:01:27.328Z,0.10
2023-04-13T13:02:27.503Z,0.20
2023-04-13T13:03:27.666Z,0.10
2023-04-13T13:04:27.837Z,0.70
2023-04-13T13:05:27.957Z,0.10
2023-04-13T13:06:28.099Z,0.10
2023-04-13T13:07:28.296Z,0.20
2023-04-13T13:08:28.455Z,0.20
2023-04-13T13:09:28.677Z,0.20
2023-04-13T13:10:29.893Z,0.10
2023-04-13T13:11:28.976Z,0.10
2023-04-13T13:12:29.167Z,0.20
2023-04-13T13:13:29.356Z,0.40
2023-04-13T13:14:29.556Z,0.10
2023-04-13T13:15:29.708Z,0.10
2023-04-13T13:16:29.945Z,0.30
2023-04-13T13:17:30.110Z,0.20
2023-04-13T13:18:42.355Z,0.60
2023-04-13T13:19:31.466Z,0.10
2023-04-13T13:20:30.644Z,0.20
2023-04-13T13:21:30.791Z,0.30
2023-04-13T13:22:30.960Z,0.20
2023-04-13T13:23:31.134Z,0.30
2023-04-13T13:24:31.311Z,0.10
2023-04-13T13:25:32.201Z,0.20